sensor_id;sensor_type;location;lat;lon;timestamp;P1;durP1;ratioP1;P2;durP2;ratioP2
77322;SDS011;66384;51.052;9.850;2023-07-28T00:01:01;1.50;;;1.20;;
77322;SDS011;66384;51.052;9.850;2023-07-28T00:03:34;1.80;;;1.20;;
77322;SDS011;66384;51.052;9.850;2023-07-28T00:06:06;2.30;;;1.60;;
77322;SDS011;66384;51.052;9.850;2023-07-28T00:08:37;2.10;;;1.20;;
77322;SDS011;66384;51.052;9.850;2023-07-28T00:11:10;2.40;;;1.50;;
77322;SDS011;66384;51.052;9.850;2023-07-28T00:13:43;2.40;;;1.50;;
77322;SDS011;66384;51.052;9.850;2023-07-28T00:16:14;3.00;;;1.40;;
77322;SDS011;66384;51.052;9.850;2023-07-28T00:18:46;2.10;;;1.20;;
77322;SDS011;66384;51.052;9.850;2023-07-28T00:21:17;3.00;;;1.30;;
77322;SDS011;66384;51.052;9.850;2023-07-28T00:23:49;1.90;;;1.30;;
77322;SDS011;66384;51.052;9.850;2023-07-28T00:26:20;3.10;;;1.80;;
77322;SDS011;66384;51.052;9.850;2023-07-28T00:28:52;3.30;;;1.40;;
77322;SDS011;66384;51.052;9.850;2023-07-28T00:31:24;2.30;;;1.40;;
77322;SDS011;66384;51.052;9.850;2023-07-28T00:33:55;3.20;;;1.60;;
77322;SDS011;66384;51.052;9.850;2023-07-28T00:36:27;2.20;;;1.50;;
77322;SDS011;66384;51.052;9.850;2023-07-28T00:38:58;3.30;;;1.90;;
77322;SDS011;66384;51.052;9.850;2023-07-28T00:41:30;3.30;;;1.50;;
77322;SDS011;66384;51.052;9.850;2023-07-28T00:44:01;5.90;;;1.60;;
77322;SDS011;66384;51.052;9.850;2023-07-28T00:46:33;2.30;;;1.60;;
77322;SDS011;66384;51.052;9.850;2023-07-28T00:49:05;2.70;;;1.50;;
77322;SDS011;66384;51.052;9.850;2023-07-28T00:51:37;2.20;;;1.40;;
77322;SDS011;66384;51.052;9.850;2023-07-28T00:54:09;2.10;;;1.50;;
77322;SDS011;66384;51.052;9.850;2023-07-28T00:56:42;2.50;;;1.40;;
77322;SDS011;66384;51.052;9.850;2023-07-28T00:59:14;2.00;;;1.30;;
77322;SDS011;66384;51.052;9.850;2023-07-28T01:01:46;3.70;;;1.50;;
77322;SDS011;66384;51.052;9.850;2023-07-28T01:04:17;3.70;;;1.70;;
77322;SDS011;66384;51.052;9.850;2023-07-28T01:06:50;4.10;;;1.70;;
77322;SDS011;66384;51.052;9.850;2023-07-28T01:09:28;2.10;;;1.30;;
77322;SDS011;66384;51.052;9.850;2023-07-28T01:12:08;3.20;;;1.80;;
77322;SDS011;66384;51.052;9.850;2023-07-28T01:14:39;2.40;;;1.40;;
77322;SDS011;66384;51.052;9.850;2023-07-28T01:17:12;3.10;;;1.60;;
77322;SDS011;66384;51.052;9.850;2023-07-28T01:19:44;2.10;;;1.50;;
77322;SDS011;66384;51.052;9.850;2023-07-28T01:22:20;2.10;;;1.40;;
77322;SDS011;66384;51.052;9.850;2023-07-28T01:25:09;2.80;;;1.60;;
77322;SDS011;66384;51.052;9.850;2023-07-28T01:27:48;2.40;;;1.60;;
77322;SDS011;66384;51.052;9.850;2023-07-28T01:30:21;1.90;;;1.50;;
77322;SDS011;66384;51.052;9.850;2023-07-28T01:32:55;2.40;;;1.60;;
77322;SDS011;66384;51.052;9.850;2023-07-28T01:35:27;2.30;;;1.60;;
77322;SDS011;66384;51.052;9.850;2023-07-28T01:37:59;2.20;;;1.40;;
77322;SDS011;66384;51.052;9.850;2023-07-28T01:40:30;2.30;;;1.60;;
77322;SDS011;66384;51.052;9.850;2023-07-28T01:43:02;2.50;;;1.70;;
77322;SDS011;66384;51.052;9.850;2023-07-28T01:45:33;2.70;;;1.60;;
77322;SDS011;66384;51.052;9.850;2023-07-28T01:48:05;2.10;;;1.30;;
77322;SDS011;66384;51.052;9.850;2023-07-28T01:50:38;2.00;;;1.30;;
77322;SDS011;66384;51.052;9.850;2023-07-28T01:53:09;3.50;;;1.40;;
77322;SDS011;66384;51.052;9.850;2023-07-28T01:55:41;2.20;;;1.60;;
77322;SDS011;66384;51.052;9.850;2023-07-28T01:58:12;2.30;;;1.50;;
77322;SDS011;66384;51.052;9.850;2023-07-28T02:00:44;3.40;;;1.50;;
77322;SDS011;66384;51.052;9.850;2023-07-28T02:03:16;2.00;;;1.40;;
77322;SDS011;66384;51.052;9.850;2023-07-28T02:05:47;3.10;;;2.00;;
77322;SDS011;66384;51.052;9.850;2023-07-28T02:08:19;3.00;;;1.90;;
77322;SDS011;66384;51.052;9.850;2023-07-28T02:10:50;1.80;;;1.20;;
77322;SDS011;66384;51.052;9.850;2023-07-28T02:13:24;2.00;;;1.40;;
77322;SDS011;66384;51.052;9.850;2023-07-28T02:15:55;1.60;;;1.20;;
77322;SDS011;66384;51.052;9.850;2023-07-28T02:18:27;2.20;;;1.30;;
77322;SDS011;66384;51.052;9.850;2023-07-28T02:20:58;1.70;;;1.20;;
77322;SDS011;66384;51.052;9.850;2023-07-28T02:23:30;1.50;;;1.10;;
77322;SDS011;66384;51.052;9.850;2023-07-28T02:26:01;1.40;;;1.10;;
77322;SDS011;66384;51.052;9.850;2023-07-28T02:28:33;1.90;;;1.40;;
77322;SDS011;66384;51.052;9.850;2023-07-28T02:31:04;2.10;;;1.30;;
77322;SDS011;66384;51.052;9.850;2023-07-28T02:33:36;1.80;;;1.30;;
77322;SDS011;66384;51.052;9.850;2023-07-28T02:36:07;1.80;;;1.30;;
77322;SDS011;66384;51.052;9.850;2023-07-28T02:38:39;3.00;;;1.10;;
77322;SDS011;66384;51.052;9.850;2023-07-28T02:41:11;1.60;;;1.00;;
77322;SDS011;66384;51.052;9.850;2023-07-28T02:43:42;2.50;;;1.70;;
77322;SDS011;66384;51.052;9.850;2023-07-28T02:46:14;3.20;;;1.20;;
77322;SDS011;66384;51.052;9.850;2023-07-28T02:48:45;1.30;;;1.00;;
77322;SDS011;66384;51.052;9.850;2023-07-28T02:51:17;1.90;;;1.30;;
77322;SDS011;66384;51.052;9.850;2023-07-28T02:53:48;1.10;;;0.70;;
77322;SDS011;66384;51.052;9.850;2023-07-28T02:56:20;2.20;;;1.20;;
77322;SDS011;66384;51.052;9.850;2023-07-28T02:58:51;2.00;;;1.20;;
77322;SDS011;66384;51.052;9.850;2023-07-28T03:01:23;1.20;;;1.00;;
77322;SDS011;66384;51.052;9.850;2023-07-28T03:03:54;1.30;;;1.20;;
77322;SDS011;66384;51.052;9.850;2023-07-28T03:06:26;2.00;;;1.10;;
77322;SDS011;66384;51.052;9.850;2023-07-28T03:08:59;2.00;;;1.30;;
77322;SDS011;66384;51.052;9.850;2023-07-28T03:11:30;2.80;;;1.40;;
77322;SDS011;66384;51.052;9.850;2023-07-28T03:14:02;1.00;;;0.80;;
77322;SDS011;66384;51.052;9.850;2023-07-28T03:16:33;1.70;;;1.00;;
77322;SDS011;66384;51.052;9.850;2023-07-28T03:19:06;1.90;;;1.20;;
77322;SDS011;66384;51.052;9.850;2023-07-28T03:21:38;1.30;;;1.00;;
77322;SDS011;66384;51.052;9.850;2023-07-28T03:24:09;1.70;;;1.00;;
77322;SDS011;66384;51.052;9.850;2023-07-28T03:26:41;1.40;;;1.00;;
77322;SDS011;66384;51.052;9.850;2023-07-28T03:29:13;2.00;;;0.90;;
77322;SDS011;66384;51.052;9.850;2023-07-28T03:31:44;1.90;;;1.30;;
77322;SDS011;66384;51.052;9.850;2023-07-28T03:34:16;1.70;;;0.90;;
77322;SDS011;66384;51.052;9.850;2023-07-28T03:36:48;2.80;;;1.30;;
77322;SDS011;66384;51.052;9.850;2023-07-28T03:39:19;1.50;;;1.00;;
77322;SDS011;66384;51.052;9.850;2023-07-28T03:41:51;1.10;;;1.00;;
77322;SDS011;66384;51.052;9.850;2023-07-28T03:44:22;1.40;;;1.10;;
77322;SDS011;66384;51.052;9.850;2023-07-28T03:46:54;1.30;;;1.00;;
77322;SDS011;66384;51.052;9.850;2023-07-28T03:49:26;1.70;;;1.20;;
77322;SDS011;66384;51.052;9.850;2023-07-28T03:51:57;1.40;;;1.10;;
77322;SDS011;66384;51.052;9.850;2023-07-28T03:54:29;1.70;;;0.80;;
77322;SDS011;66384;51.052;9.850;2023-07-28T03:57:00;0.90;;;0.80;;
77322;SDS011;66384;51.052;9.850;2023-07-28T03:59:32;1.40;;;1.00;;
77322;SDS011;66384;51.052;9.850;2023-07-28T04:02:03;1.20;;;0.90;;
77322;SDS011;66384;51.052;9.850;2023-07-28T04:04:36;1.90;;;1.20;;
77322;SDS011;66384;51.052;9.850;2023-07-28T04:07:07;1.30;;;1.00;;
77322;SDS011;66384;51.052;9.850;2023-07-28T04:09:39;1.00;;;0.90;;
77322;SDS011;66384;51.052;9.850;2023-07-28T04:12:11;1.10;;;1.00;;
77322;SDS011;66384;51.052;9.850;2023-07-28T04:14:42;4.00;;;1.10;;
77322;SDS011;66384;51.052;9.850;2023-07-28T04:17:14;1.10;;;0.90;;
77322;SDS011;66384;51.052;9.850;2023-07-28T04:19:45;1.30;;;0.90;;
77322;SDS011;66384;51.052;9.850;2023-07-28T04:22:17;2.90;;;1.00;;
77322;SDS011;66384;51.052;9.850;2023-07-28T04:24:50;1.30;;;0.80;;
77322;SDS011;66384;51.052;9.850;2023-07-28T04:27:22;3.30;;;1.00;;
77322;SDS011;66384;51.052;9.850;2023-07-28T04:29:54;1.60;;;0.90;;
77322;SDS011;66384;51.052;9.850;2023-07-28T04:32:25;1.40;;;0.90;;
77322;SDS011;66384;51.052;9.850;2023-07-28T04:34:57;0.90;;;0.70;;
77322;SDS011;66384;51.052;9.850;2023-07-28T04:37:29;1.40;;;1.00;;
77322;SDS011;66384;51.052;9.850;2023-07-28T04:40:00;1.00;;;0.80;;
77322;SDS011;66384;51.052;9.850;2023-07-28T04:42:32;0.80;;;0.80;;
77322;SDS011;66384;51.052;9.850;2023-07-28T04:45:06;1.70;;;1.10;;
77322;SDS011;66384;51.052;9.850;2023-07-28T04:47:39;1.40;;;1.10;;
77322;SDS011;66384;51.052;9.850;2023-07-28T04:50:11;1.10;;;0.80;;
77322;SDS011;66384;51.052;9.850;2023-07-28T04:52:43;1.10;;;0.90;;
77322;SDS011;66384;51.052;9.850;2023-07-28T04:55:14;1.30;;;1.00;;
77322;SDS011;66384;51.052;9.850;2023-07-28T04:57:46;1.50;;;1.40;;
77322;SDS011;66384;51.052;9.850;2023-07-28T05:00:18;2.20;;;1.10;;
77322;SDS011;66384;51.052;9.850;2023-07-28T05:02:49;1.20;;;1.00;;
77322;SDS011;66384;51.052;9.850;2023-07-28T05:05:21;1.40;;;1.00;;
77322;SDS011;66384;51.052;9.850;2023-07-28T05:07:52;2.50;;;1.10;;
77322;SDS011;66384;51.052;9.850;2023-07-28T05:10:24;1.50;;;1.00;;
77322;SDS011;66384;51.052;9.850;2023-07-28T05:12:55;1.60;;;1.10;;
77322;SDS011;66384;51.052;9.850;2023-07-28T05:15:27;1.20;;;1.00;;
77322;SDS011;66384;51.052;9.850;2023-07-28T05:17:58;1.50;;;1.30;;
77322;SDS011;66384;51.052;9.850;2023-07-28T05:20:30;1.40;;;1.10;;
77322;SDS011;66384;51.052;9.850;2023-07-28T05:23:02;1.70;;;1.20;;
77322;SDS011;66384;51.052;9.850;2023-07-28T05:25:34;4.60;;;2.00;;
77322;SDS011;66384;51.052;9.850;2023-07-28T05:28:05;2.70;;;1.50;;
77322;SDS011;66384;51.052;9.850;2023-07-28T05:30:37;5.20;;;1.80;;
77322;SDS011;66384;51.052;9.850;2023-07-28T05:33:08;2.50;;;1.30;;
77322;SDS011;66384;51.052;9.850;2023-07-28T05:35:40;3.50;;;1.40;;
77322;SDS011;66384;51.052;9.850;2023-07-28T05:38:12;2.50;;;1.70;;
77322;SDS011;66384;51.052;9.850;2023-07-28T05:40:43;1.80;;;1.50;;
77322;SDS011;66384;51.052;9.850;2023-07-28T05:43:15;1.40;;;1.10;;
77322;SDS011;66384;51.052;9.850;2023-07-28T05:45:47;5.90;;;1.10;;
77322;SDS011;66384;51.052;9.850;2023-07-28T05:48:18;1.90;;;1.30;;
77322;SDS011;66384;51.052;9.850;2023-07-28T05:50:50;3.00;;;1.30;;
77322;SDS011;66384;51.052;9.850;2023-07-28T05:53:22;2.60;;;1.40;;
77322;SDS011;66384;51.052;9.850;2023-07-28T05:55:54;2.90;;;1.40;;
77322;SDS011;66384;51.052;9.850;2023-07-28T05:58:25;2.80;;;1.40;;
77322;SDS011;66384;51.052;9.850;2023-07-28T06:00:57;1.80;;;1.30;;
77322;SDS011;66384;51.052;9.850;2023-07-28T06:03:29;2.50;;;1.40;;
77322;SDS011;66384;51.052;9.850;2023-07-28T06:06:00;1.70;;;1.20;;
77322;SDS011;66384;51.052;9.850;2023-07-28T06:08:32;3.20;;;1.60;;
77322;SDS011;66384;51.052;9.850;2023-07-28T06:11:05;1.60;;;1.40;;
77322;SDS011;66384;51.052;9.850;2023-07-28T06:13:37;1.80;;;1.30;;
77322;SDS011;66384;51.052;9.850;2023-07-28T06:16:09;2.40;;;1.70;;
77322;SDS011;66384;51.052;9.850;2023-07-28T06:18:40;2.80;;;1.40;;
77322;SDS011;66384;51.052;9.850;2023-07-28T06:21:12;1.90;;;1.40;;
77322;SDS011;66384;51.052;9.850;2023-07-28T06:23:44;2.90;;;1.50;;
77322;SDS011;66384;51.052;9.850;2023-07-28T06:26:15;4.00;;;1.40;;
77322;SDS011;66384;51.052;9.850;2023-07-28T06:28:47;1.60;;;1.00;;
77322;SDS011;66384;51.052;9.850;2023-07-28T06:31:19;1.50;;;1.20;;
77322;SDS011;66384;51.052;9.850;2023-07-28T06:33:51;2.30;;;1.40;;
77322;SDS011;66384;51.052;9.850;2023-07-28T06:36:22;2.50;;;1.40;;
77322;SDS011;66384;51.052;9.850;2023-07-28T06:38:54;2.50;;;1.60;;
77322;SDS011;66384;51.052;9.850;2023-07-28T06:41:25;3.40;;;1.90;;
77322;SDS011;66384;51.052;9.850;2023-07-28T06:43:57;2.90;;;2.00;;
77322;SDS011;66384;51.052;9.850;2023-07-28T06:46:28;1.90;;;1.40;;
77322;SDS011;66384;51.052;9.850;2023-07-28T06:49:00;1.80;;;1.30;;
77322;SDS011;66384;51.052;9.850;2023-07-28T06:51:32;1.70;;;1.20;;
77322;SDS011;66384;51.052;9.850;2023-07-28T06:54:04;1.40;;;1.00;;
77322;SDS011;66384;51.052;9.850;2023-07-28T06:56:41;1.00;;;0.90;;
77322;SDS011;66384;51.052;9.850;2023-07-28T06:59:12;1.80;;;1.30;;
77322;SDS011;66384;51.052;9.850;2023-07-28T07:01:50;1.50;;;1.10;;
77322;SDS011;66384;51.052;9.850;2023-07-28T07:04:21;3.70;;;1.30;;
77322;SDS011;66384;51.052;9.850;2023-07-28T07:06:53;1.70;;;1.30;;
77322;SDS011;66384;51.052;9.850;2023-07-28T07:09:24;1.90;;;1.30;;
77322;SDS011;66384;51.052;9.850;2023-07-28T07:11:56;1.70;;;1.20;;
77322;SDS011;66384;51.052;9.850;2023-07-28T07:14:27;1.40;;;1.10;;
77322;SDS011;66384;51.052;9.850;2023-07-28T07:16:59;2.30;;;1.40;;
77322;SDS011;66384;51.052;9.850;2023-07-28T07:19:30;1.60;;;1.30;;
77322;SDS011;66384;51.052;9.850;2023-07-28T07:22:02;3.30;;;3.00;;
77322;SDS011;66384;51.052;9.850;2023-07-28T07:24:34;2.10;;;1.60;;
77322;SDS011;66384;51.052;9.850;2023-07-28T07:27:06;0.80;;;0.80;;
77322;SDS011;66384;51.052;9.850;2023-07-28T07:29:39;1.90;;;1.40;;
77322;SDS011;66384;51.052;9.850;2023-07-28T07:32:11;1.40;;;1.00;;
77322;SDS011;66384;51.052;9.850;2023-07-28T07:34:44;1.50;;;1.20;;
77322;SDS011;66384;51.052;9.850;2023-07-28T07:37:16;1.80;;;0.90;;
77322;SDS011;66384;51.052;9.850;2023-07-28T07:39:47;2.10;;;1.50;;
77322;SDS011;66384;51.052;9.850;2023-07-28T07:42:19;1.00;;;0.90;;
77322;SDS011;66384;51.052;9.850;2023-07-28T07:44:50;1.60;;;1.20;;
77322;SDS011;66384;51.052;9.850;2023-07-28T07:47:22;1.60;;;1.30;;
77322;SDS011;66384;51.052;9.850;2023-07-28T07:49:53;1.20;;;1.00;;
77322;SDS011;66384;51.052;9.850;2023-07-28T07:52:25;1.30;;;1.20;;
77322;SDS011;66384;51.052;9.850;2023-07-28T07:54:56;1.60;;;1.30;;
77322;SDS011;66384;51.052;9.850;2023-07-28T07:57:28;2.10;;;1.20;;
77322;SDS011;66384;51.052;9.850;2023-07-28T08:00:01;3.10;;;1.10;;
77322;SDS011;66384;51.052;9.850;2023-07-28T08:02:33;2.00;;;1.10;;
77322;SDS011;66384;51.052;9.850;2023-07-28T08:05:06;1.20;;;1.10;;
77322;SDS011;66384;51.052;9.850;2023-07-28T08:07:38;1.30;;;1.00;;
77322;SDS011;66384;51.052;9.850;2023-07-28T08:10:11;1.80;;;1.30;;
77322;SDS011;66384;51.052;9.850;2023-07-28T08:12:43;4.30;;;2.50;;
77322;SDS011;66384;51.052;9.850;2023-07-28T08:15:16;5.40;;;2.60;;
77322;SDS011;66384;51.052;9.850;2023-07-28T08:17:47;1.50;;;1.20;;
77322;SDS011;66384;51.052;9.850;2023-07-28T08:20:19;1.40;;;1.10;;
77322;SDS011;66384;51.052;9.850;2023-07-28T08:22:51;1.20;;;1.10;;
77322;SDS011;66384;51.052;9.850;2023-07-28T08:25:22;3.80;;;2.70;;
77322;SDS011;66384;51.052;9.850;2023-07-28T08:27:54;4.40;;;3.50;;
77322;SDS011;66384;51.052;9.850;2023-07-28T08:30:26;3.10;;;2.60;;
77322;SDS011;66384;51.052;9.850;2023-07-28T08:32:57;4.50;;;3.80;;
77322;SDS011;66384;51.052;9.850;2023-07-28T08:35:29;3.10;;;1.70;;
77322;SDS011;66384;51.052;9.850;2023-07-28T08:38:00;1.40;;;1.30;;
77322;SDS011;66384;51.052;9.850;2023-07-28T08:40:32;2.50;;;1.50;;
77322;SDS011;66384;51.052;9.850;2023-07-28T08:43:05;3.40;;;1.70;;
77322;SDS011;66384;51.052;9.850;2023-07-28T08:45:37;2.00;;;1.40;;
77322;SDS011;66384;51.052;9.850;2023-07-28T08:48:09;2.40;;;1.60;;
77322;SDS011;66384;51.052;9.850;2023-07-28T08:50:41;3.20;;;2.00;;
77322;SDS011;66384;51.052;9.850;2023-07-28T08:53:12;4.80;;;1.90;;
77322;SDS011;66384;51.052;9.850;2023-07-28T08:55:44;2.10;;;1.40;;
77322;SDS011;66384;51.052;9.850;2023-07-28T08:58:19;1.90;;;1.50;;
77322;SDS011;66384;51.052;9.850;2023-07-28T09:00:53;5.90;;;4.50;;
77322;SDS011;66384;51.052;9.850;2023-07-28T09:03:24;4.20;;;2.10;;
77322;SDS011;66384;51.052;9.850;2023-07-28T09:06:00;3.60;;;1.40;;
77322;SDS011;66384;51.052;9.850;2023-07-28T09:08:32;3.40;;;1.90;;
77322;SDS011;66384;51.052;9.850;2023-07-28T09:11:04;2.20;;;1.90;;
77322;SDS011;66384;51.052;9.850;2023-07-28T09:13:39;2.50;;;1.80;;
77322;SDS011;66384;51.052;9.850;2023-07-28T09:16:18;3.40;;;1.80;;
77322;SDS011;66384;51.052;9.850;2023-07-28T09:18:50;2.20;;;1.50;;
77322;SDS011;66384;51.052;9.850;2023-07-28T09:21:33;1.40;;;1.30;;
77322;SDS011;66384;51.052;9.850;2023-07-28T09:24:05;1.70;;;1.20;;
77322;SDS011;66384;51.052;9.850;2023-07-28T09:26:40;2.20;;;1.70;;
77322;SDS011;66384;51.052;9.850;2023-07-28T09:29:14;2.10;;;1.60;;
77322;SDS011;66384;51.052;9.850;2023-07-28T09:31:47;1.50;;;1.40;;
77322;SDS011;66384;51.052;9.850;2023-07-28T09:34:24;3.40;;;2.00;;
77322;SDS011;66384;51.052;9.850;2023-07-28T09:36:56;2.50;;;1.80;;
77322;SDS011;66384;51.052;9.850;2023-07-28T09:39:28;4.30;;;1.80;;
77322;SDS011;66384;51.052;9.850;2023-07-28T09:42:00;2.30;;;1.80;;
77322;SDS011;66384;51.052;9.850;2023-07-28T09:44:33;2.10;;;1.40;;
77322;SDS011;66384;51.052;9.850;2023-07-28T09:47:05;1.50;;;1.20;;
77322;SDS011;66384;51.052;9.850;2023-07-28T09:49:39;3.00;;;1.40;;
77322;SDS011;66384;51.052;9.850;2023-07-28T09:52:17;2.20;;;1.10;;
77322;SDS011;66384;51.052;9.850;2023-07-28T09:54:53;1.90;;;1.40;;
77322;SDS011;66384;51.052;9.850;2023-07-28T09:57:29;4.30;;;1.50;;
77322;SDS011;66384;51.052;9.850;2023-07-28T10:00:07;2.40;;;1.50;;
77322;SDS011;66384;51.052;9.850;2023-07-28T10:02:41;7.20;;;1.90;;
77322;SDS011;66384;51.052;9.850;2023-07-28T10:05:14;2.40;;;1.60;;
77322;SDS011;66384;51.052;9.850;2023-07-28T10:07:47;1.60;;;1.30;;
77322;SDS011;66384;51.052;9.850;2023-07-28T10:10:20;3.20;;;1.50;;
77322;SDS011;66384;51.052;9.850;2023-07-28T10:12:53;3.60;;;1.50;;
77322;SDS011;66384;51.052;9.850;2023-07-28T10:15:31;5.00;;;1.80;;
77322;SDS011;66384;51.052;9.850;2023-07-28T10:18:02;1.80;;;1.50;;
77322;SDS011;66384;51.052;9.850;2023-07-28T10:20:38;1.80;;;1.50;;
77322;SDS011;66384;51.052;9.850;2023-07-28T10:23:16;5.20;;;1.60;;
77322;SDS011;66384;51.052;9.850;2023-07-28T10:25:56;1.90;;;1.50;;
77322;SDS011;66384;51.052;9.850;2023-07-28T10:28:31;4.10;;;1.40;;
77322;SDS011;66384;51.052;9.850;2023-07-28T10:31:07;2.40;;;1.50;;
77322;SDS011;66384;51.052;9.850;2023-07-28T10:33:41;2.40;;;1.50;;
77322;SDS011;66384;51.052;9.850;2023-07-28T10:36:18;2.20;;;1.60;;
77322;SDS011;66384;51.052;9.850;2023-07-28T10:39:12;2.40;;;1.60;;
77322;SDS011;66384;51.052;9.850;2023-07-28T10:42:01;3.50;;;1.60;;
77322;SDS011;66384;51.052;9.850;2023-07-28T10:44:35;1.60;;;1.20;;
77322;SDS011;66384;51.052;9.850;2023-07-28T10:47:10;2.10;;;1.50;;
77322;SDS011;66384;51.052;9.850;2023-07-28T10:49:42;1.30;;;1.10;;
77322;SDS011;66384;51.052;9.850;2023-07-28T10:52:17;3.70;;;1.70;;
77322;SDS011;66384;51.052;9.850;2023-07-28T10:54:49;3.20;;;1.40;;
77322;SDS011;66384;51.052;9.850;2023-07-28T10:57:20;1.70;;;1.40;;
77322;SDS011;66384;51.052;9.850;2023-07-28T10:59:54;1.20;;;1.10;;
77322;SDS011;66384;51.052;9.850;2023-07-28T11:02:30;1.80;;;1.10;;
77322;SDS011;66384;51.052;9.850;2023-07-28T11:05:06;1.50;;;1.10;;
77322;SDS011;66384;51.052;9.850;2023-07-28T11:07:42;1.40;;;1.10;;
77322;SDS011;66384;51.052;9.850;2023-07-28T11:10:14;1.50;;;1.40;;
77322;SDS011;66384;51.052;9.850;2023-07-28T11:12:47;1.50;;;1.20;;
77322;SDS011;66384;51.052;9.850;2023-07-28T11:15:20;5.10;;;1.20;;
77322;SDS011;66384;51.052;9.850;2023-07-28T11:17:52;2.60;;;1.50;;
77322;SDS011;66384;51.052;9.850;2023-07-28T11:20:25;1.60;;;1.10;;
77322;SDS011;66384;51.052;9.850;2023-07-28T11:22:58;2.00;;;1.20;;
77322;SDS011;66384;51.052;9.850;2023-07-28T11:25:32;1.70;;;1.30;;
77322;SDS011;66384;51.052;9.850;2023-07-28T11:28:05;7.30;;;4.60;;
77322;SDS011;66384;51.052;9.850;2023-07-28T11:30:39;13.70;;;5.50;;
77322;SDS011;66384;51.052;9.850;2023-07-28T11:33:12;4.00;;;2.30;;
77322;SDS011;66384;51.052;9.850;2023-07-28T11:35:45;4.80;;;2.50;;
77322;SDS011;66384;51.052;9.850;2023-07-28T11:38:17;4.80;;;2.60;;
77322;SDS011;66384;51.052;9.850;2023-07-28T11:40:50;1.80;;;1.50;;
77322;SDS011;66384;51.052;9.850;2023-07-28T11:43:23;2.80;;;2.00;;
77322;SDS011;66384;51.052;9.850;2023-07-28T11:45:55;2.30;;;1.60;;
77322;SDS011;66384;51.052;9.850;2023-07-28T11:48:29;2.40;;;2.00;;
77322;SDS011;66384;51.052;9.850;2023-07-28T11:51:01;1.50;;;1.30;;
77322;SDS011;66384;51.052;9.850;2023-07-28T11:53:34;2.30;;;1.50;;
77322;SDS011;66384;51.052;9.850;2023-07-28T11:56:06;1.90;;;1.30;;
77322;SDS011;66384;51.052;9.850;2023-07-28T11:58:38;1.80;;;1.50;;
77322;SDS011;66384;51.052;9.850;2023-07-28T12:01:10;2.10;;;1.70;;
77322;SDS011;66384;51.052;9.850;2023-07-28T12:03:42;2.00;;;1.40;;
77322;SDS011;66384;51.052;9.850;2023-07-28T12:06:14;2.20;;;1.80;;
77322;SDS011;66384;51.052;9.850;2023-07-28T12:11:38;3.80;;;2.20;;
77322;SDS011;66384;51.052;9.850;2023-07-28T12:14:16;2.70;;;2.30;;
77322;SDS011;66384;51.052;9.850;2023-07-28T12:17:05;3.30;;;2.10;;
77322;SDS011;66384;51.052;9.850;2023-07-28T12:19:57;2.20;;;1.80;;
77322;SDS011;66384;51.052;9.850;2023-07-28T12:22:29;2.60;;;1.60;;
77322;SDS011;66384;51.052;9.850;2023-07-28T12:25:01;3.30;;;2.80;;
77322;SDS011;66384;51.052;9.850;2023-07-28T12:27:34;4.20;;;1.70;;
77322;SDS011;66384;51.052;9.850;2023-07-28T12:30:06;2.70;;;1.80;;
77322;SDS011;66384;51.052;9.850;2023-07-28T12:32:42;1.90;;;1.40;;
77322;SDS011;66384;51.052;9.850;2023-07-28T12:35:17;3.10;;;1.50;;
77322;SDS011;66384;51.052;9.850;2023-07-28T12:37:51;2.60;;;2.00;;
77322;SDS011;66384;51.052;9.850;2023-07-28T12:40:26;2.20;;;1.60;;
77322;SDS011;66384;51.052;9.850;2023-07-28T12:43:01;3.40;;;1.80;;
77322;SDS011;66384;51.052;9.850;2023-07-28T12:45:34;3.20;;;2.00;;
77322;SDS011;66384;51.052;9.850;2023-07-28T12:48:09;2.40;;;1.60;;
77322;SDS011;66384;51.052;9.850;2023-07-28T12:50:49;2.70;;;1.80;;
77322;SDS011;66384;51.052;9.850;2023-07-28T12:53:31;2.40;;;1.80;;
77322;SDS011;66384;51.052;9.850;2023-07-28T12:56:03;3.30;;;2.90;;
77322;SDS011;66384;51.052;9.850;2023-07-28T12:58:35;2.20;;;1.70;;
77322;SDS011;66384;51.052;9.850;2023-07-28T13:01:10;2.70;;;2.10;;
77322;SDS011;66384;51.052;9.850;2023-07-28T13:03:41;3.30;;;2.40;;
77322;SDS011;66384;51.052;9.850;2023-07-28T13:06:13;3.40;;;1.90;;
77322;SDS011;66384;51.052;9.850;2023-07-28T13:08:44;2.90;;;2.00;;
77322;SDS011;66384;51.052;9.850;2023-07-28T13:11:19;3.30;;;2.00;;
77322;SDS011;66384;51.052;9.850;2023-07-28T13:13:50;2.40;;;1.60;;
77322;SDS011;66384;51.052;9.850;2023-07-28T13:16:22;3.80;;;2.00;;
77322;SDS011;66384;51.052;9.850;2023-07-28T13:18:54;3.50;;;2.10;;
77322;SDS011;66384;51.052;9.850;2023-07-28T13:21:26;2.30;;;1.70;;
77322;SDS011;66384;51.052;9.850;2023-07-28T13:23:57;2.60;;;1.80;;
77322;SDS011;66384;51.052;9.850;2023-07-28T13:26:29;3.20;;;1.80;;
77322;SDS011;66384;51.052;9.850;2023-07-28T13:29:00;5.30;;;2.10;;
77322;SDS011;66384;51.052;9.850;2023-07-28T13:31:35;2.70;;;1.70;;
77322;SDS011;66384;51.052;9.850;2023-07-28T13:34:07;2.70;;;2.10;;
77322;SDS011;66384;51.052;9.850;2023-07-28T13:36:39;3.50;;;2.50;;
77322;SDS011;66384;51.052;9.850;2023-07-28T13:39:12;5.00;;;2.10;;
77322;SDS011;66384;51.052;9.850;2023-07-28T13:41:43;3.20;;;2.30;;
77322;SDS011;66384;51.052;9.850;2023-07-28T13:44:15;3.40;;;2.20;;
77322;SDS011;66384;51.052;9.850;2023-07-28T13:46:47;3.80;;;2.10;;
77322;SDS011;66384;51.052;9.850;2023-07-28T13:49:18;4.40;;;2.40;;
77322;SDS011;66384;51.052;9.850;2023-07-28T13:51:50;4.20;;;2.30;;
77322;SDS011;66384;51.052;9.850;2023-07-28T13:54:24;5.60;;;2.60;;
77322;SDS011;66384;51.052;9.850;2023-07-28T13:56:55;3.70;;;2.50;;
77322;SDS011;66384;51.052;9.850;2023-07-28T13:59:29;3.00;;;2.20;;
77322;SDS011;66384;51.052;9.850;2023-07-28T14:02:01;2.70;;;2.00;;
77322;SDS011;66384;51.052;9.850;2023-07-28T14:04:32;4.50;;;2.40;;
77322;SDS011;66384;51.052;9.850;2023-07-28T14:07:04;2.60;;;2.10;;
77322;SDS011;66384;51.052;9.850;2023-07-28T14:09:37;3.30;;;2.40;;
77322;SDS011;66384;51.052;9.850;2023-07-28T14:12:09;4.40;;;2.40;;
77322;SDS011;66384;51.052;9.850;2023-07-28T14:14:41;3.00;;;2.40;;
77322;SDS011;66384;51.052;9.850;2023-07-28T14:17:12;4.60;;;2.10;;
77322;SDS011;66384;51.052;9.850;2023-07-28T14:19:44;3.00;;;2.20;;
77322;SDS011;66384;51.052;9.850;2023-07-28T14:22:15;4.10;;;2.90;;
77322;SDS011;66384;51.052;9.850;2023-07-28T14:24:47;2.60;;;2.30;;
77322;SDS011;66384;51.052;9.850;2023-07-28T14:27:19;3.40;;;2.60;;
77322;SDS011;66384;51.052;9.850;2023-07-28T14:29:50;3.90;;;2.00;;
77322;SDS011;66384;51.052;9.850;2023-07-28T14:32:22;3.20;;;2.70;;
77322;SDS011;66384;51.052;9.850;2023-07-28T14:34:53;3.10;;;2.30;;
77322;SDS011;66384;51.052;9.850;2023-07-28T14:37:25;4.20;;;2.00;;
77322;SDS011;66384;51.052;9.850;2023-07-28T14:39:56;3.40;;;2.60;;
77322;SDS011;66384;51.052;9.850;2023-07-28T14:42:28;3.50;;;2.40;;
77322;SDS011;66384;51.052;9.850;2023-07-28T14:44:59;4.60;;;2.40;;
77322;SDS011;66384;51.052;9.850;2023-07-28T14:47:31;2.90;;;2.50;;
77322;SDS011;66384;51.052;9.850;2023-07-28T14:50:03;3.60;;;2.50;;
77322;SDS011;66384;51.052;9.850;2023-07-28T14:52:35;6.00;;;2.70;;
77322;SDS011;66384;51.052;9.850;2023-07-28T14:55:08;2.60;;;2.20;;
77322;SDS011;66384;51.052;9.850;2023-07-28T14:57:43;3.20;;;2.80;;
77322;SDS011;66384;51.052;9.850;2023-07-28T15:00:14;4.10;;;2.30;;
77322;SDS011;66384;51.052;9.850;2023-07-28T15:02:46;2.50;;;1.90;;
77322;SDS011;66384;51.052;9.850;2023-07-28T15:05:17;2.70;;;2.20;;
77322;SDS011;66384;51.052;9.850;2023-07-28T15:07:49;4.90;;;1.90;;
77322;SDS011;66384;51.052;9.850;2023-07-28T15:10:21;3.10;;;2.30;;
77322;SDS011;66384;51.052;9.850;2023-07-28T15:12:52;2.90;;;2.20;;
77322;SDS011;66384;51.052;9.850;2023-07-28T15:15:24;2.90;;;2.30;;
77322;SDS011;66384;51.052;9.850;2023-07-28T15:17:56;3.40;;;2.00;;
77322;SDS011;66384;51.052;9.850;2023-07-28T15:20:27;2.10;;;1.60;;
77322;SDS011;66384;51.052;9.850;2023-07-28T15:22:59;2.80;;;2.00;;